createdAt,value
2017-09-15T00:00:52.953Z,9.90
2017-09-15T00:03:20.529Z,9.90
2017-09-15T00:05:48.083Z,9.80
2017-09-15T00:08:16.051Z,9.90
2017-09-15T00:10:43.626Z,9.80
2017-09-15T00:13:11.187Z,9.80
2017-09-15T00:15:38.772Z,9.90
2017-09-15T00:18:06.338Z,9.90
2017-09-15T00:20:33.918Z,9.90
2017-09-15T00:23:01.481Z,9.90
2017-09-15T00:25:29.832Z,9.80
2017-09-15T00:27:57.406Z,9.90
2017-09-15T00:30:26.042Z,9.90
2017-09-15T00:32:53.611Z,9.80
2017-09-15T00:35:21.168Z,9.80
2017-09-15T00:37:48.770Z,9.80
2017-09-15T00:40:17.146Z,9.70
2017-09-15T00:42:44.720Z,9.70
2017-09-15T00:45:13.097Z,9.60
2017-09-15T00:47:40.692Z,9.60
2017-09-15T00:50:08.261Z,9.60
2017-09-15T00:52:36.131Z,9.70
2017-09-15T00:55:03.713Z,9.70
2017-09-15T00:57:31.270Z,9.70
2017-09-15T00:59:58.916Z,9.70
2017-09-15T01:02:26.474Z,9.70
2017-09-15T01:04:54.049Z,9.70
2017-09-15T01:07:21.603Z,9.70
2017-09-15T01:09:49.437Z,9.70
2017-09-15T01:12:17.015Z,9.70
2017-09-15T01:14:46.087Z,9.60
2017-09-15T01:17:13.660Z,9.60
2017-09-15T01:19:41.223Z,9.70
2017-09-15T01:22:09.168Z,9.60
2017-09-15T01:24:36.734Z,9.60
2017-09-15T01:27:04.304Z,9.60
2017-09-15T01:29:31.890Z,9.60
2017-09-15T01:31:59.485Z,9.60
2017-09-15T01:34:27.087Z,9.60
2017-09-15T01:36:54.669Z,9.60
2017-09-15T01:39:22.248Z,9.50
2017-09-15T01:41:50.564Z,9.50
2017-09-15T01:44:18.435Z,9.50
2017-09-15T01:46:46.033Z,9.50
2017-09-15T01:49:13.600Z,9.40
2017-09-15T01:51:41.941Z,9.30
2017-09-15T01:54:09.496Z,9.30
2017-09-15T01:56:37.081Z,9.30
2017-09-15T01:59:04.652Z,9.30
2017-09-15T02:01:33.913Z,9.20
2017-09-15T02:04:01.491Z,9.20
2017-09-15T02:06:29.472Z,9.10
2017-09-15T02:08:57.037Z,9.10
2017-09-15T02:11:25.372Z,9.10
2017-09-15T02:13:52.931Z,9.10
2017-09-15T02:16:21.281Z,9.10
2017-09-15T02:18:48.876Z,9.10
2017-09-15T02:21:21.182Z,9.10
2017-09-15T02:23:49.520Z,9.00
2017-09-15T02:26:17.077Z,9.00
2017-09-15T02:28:44.935Z,9.00
2017-09-15T02:31:12.514Z,9.00
2017-09-15T02:33:40.079Z,9.00
2017-09-15T02:36:07.661Z,9.00
2017-09-15T02:38:36.036Z,8.90
2017-09-15T02:41:04.391Z,9.00
2017-09-15T02:43:31.948Z,9.00
2017-09-15T02:45:59.811Z,9.00
2017-09-15T02:48:27.391Z,9.00
2017-09-15T02:50:55.735Z,8.90
2017-09-15T02:53:23.309Z,8.90
2017-09-15T02:55:50.887Z,8.90
2017-09-15T02:58:18.474Z,8.90
2017-09-15T03:00:46.040Z,8.90
2017-09-15T03:03:13.939Z,8.90
2017-09-15T03:05:41.492Z,8.90
2017-09-15T03:08:09.059Z,8.90
2017-09-15T03:10:36.630Z,8.80
2017-09-15T03:13:04.203Z,8.90
2017-09-15T03:15:31.801Z,8.80
2017-09-15T03:17:59.360Z,8.80
2017-09-15T03:20:27.391Z,8.80
2017-09-15T03:22:54.961Z,8.70
2017-09-15T03:25:23.328Z,8.70
2017-09-15T03:27:50.909Z,8.60
2017-09-15T03:30:19.253Z,8.60
2017-09-15T03:32:46.820Z,8.60
2017-09-15T03:35:14.418Z,8.60
2017-09-15T03:37:42.333Z,8.60
2017-09-15T03:40:09.938Z,8.60
2017-09-15T03:42:37.507Z,8.60
2017-09-15T03:45:05.084Z,8.60
2017-09-15T03:47:32.669Z,8.60
2017-09-15T03:50:00.253Z,8.60
2017-09-15T03:52:28.585Z,8.40
2017-09-15T03:54:56.558Z,8.40
2017-09-15T03:57:24.131Z,8.40
2017-09-15T03:59:51.710Z,8.40
2017-09-15T04:02:20.061Z,8.40
2017-09-15T04:04:47.627Z,8.40
2017-09-15T04:07:15.196Z,8.50
2017-09-15T04:09:42.773Z,8.40
2017-09-15T04:12:11.110Z,8.40
2017-09-15T04:14:39.936Z,8.50
2017-09-15T04:17:08.556Z,8.50
2017-09-15T04:19:36.935Z,8.40
2017-09-15T04:22:04.508Z,8.50
2017-09-15T04:24:32.080Z,8.40
2017-09-15T04:26:59.646Z,8.40
2017-09-15T04:29:27.232Z,8.40
2017-09-15T04:31:55.598Z,8.40
2017-09-15T04:34:23.188Z,8.40
2017-09-15T04:36:50.764Z,8.40
2017-09-15T04:39:18.624Z,8.30
2017-09-15T04:41:46.179Z,8.30
2017-09-15T04:44:13.757Z,8.30
2017-09-15T04:46:41.336Z,8.30
2017-09-15T04:49:08.916Z,8.30
2017-09-15T04:51:37.210Z,8.30
2017-09-15T04:54:05.568Z,8.20
2017-09-15T04:56:33.150Z,8.20
2017-09-15T04:59:01.482Z,8.20
2017-09-15T05:01:29.350Z,8.20
2017-09-15T05:03:56.932Z,8.20
2017-09-15T05:06:24.510Z,8.20
2017-09-15T05:08:52.097Z,8.20
2017-09-15T05:11:19.682Z,8.20
2017-09-15T05:13:47.262Z,8.20
2017-09-15T05:16:14.814Z,8.20
2017-09-15T05:18:42.388Z,8.20
2017-09-15T05:21:09.964Z,8.20
2017-09-15T05:23:38.388Z,8.20
2017-09-15T05:26:05.983Z,8.20
2017-09-15T05:28:33.549Z,8.20
2017-09-15T05:31:01.923Z,8.20
2017-09-15T05:33:30.404Z,8.20
2017-09-15T05:35:57.982Z,8.30
2017-09-15T05:38:26.322Z,8.30
2017-09-15T05:40:53.904Z,8.30
2017-09-15T05:43:22.253Z,8.40
2017-09-15T05:45:50.591Z,8.50
2017-09-15T05:48:18.162Z,8.50
2017-09-15T05:50:45.745Z,8.60
2017-09-15T05:53:13.329Z,8.60
2017-09-15T05:55:40.894Z,8.70
2017-09-15T05:58:08.476Z,8.80
2017-09-15T06:00:36.819Z,8.90
2017-09-15T06:03:04.405Z,8.90
2017-09-15T06:05:32.746Z,9.10
2017-09-15T06:08:00.345Z,9.10
2017-09-15T06:10:27.924Z,9.20
2017-09-15T06:12:55.821Z,9.30
2017-09-15T06:15:23.400Z,9.30
2017-09-15T06:17:50.952Z,9.50
2017-09-15T06:20:18.542Z,9.50
2017-09-15T06:22:46.882Z,9.70
2017-09-15T06:25:14.487Z,9.70
2017-09-15T06:27:42.054Z,9.80
2017-09-15T06:30:09.646Z,9.90
2017-09-15T06:32:37.229Z,10.00
2017-09-15T06:35:05.182Z,10.10
2017-09-15T06:37:32.766Z,10.10
2017-09-15T06:40:01.104Z,10.40
2017-09-15T06:42:28.688Z,10.30
2017-09-15T06:44:56.244Z,10.40
2017-09-15T06:47:23.824Z,10.50
2017-09-15T06:49:51.408Z,10.60
2017-09-15T06:52:19.883Z,10.70
2017-09-15T06:54:48.647Z,10.90
2017-09-15T06:57:17.482Z,10.90
2017-09-15T06:59:45.097Z,10.90
2017-09-15T07:02:13.457Z,11.10
2017-09-15T07:04:41.027Z,11.00
2017-09-15T07:07:09.380Z,11.30
2017-09-15T07:09:36.973Z,11.20
2017-09-15T07:12:04.547Z,11.30
2017-09-15T07:14:32.132Z,11.40
2017-09-15T07:16:59.721Z,11.50
2017-09-15T07:19:27.313Z,11.50
2017-09-15T07:21:55.659Z,11.70
2017-09-15T07:24:23.269Z,11.60
2017-09-15T07:26:50.844Z,11.70
2017-09-15T07:29:18.754Z,11.80
2017-09-15T07:31:46.327Z,11.80
2017-09-15T07:34:13.909Z,11.90
2017-09-15T07:36:41.528Z,12.00
2017-09-15T07:39:09.093Z,12.00
2017-09-15T07:41:36.708Z,12.10
2017-09-15T07:44:04.299Z,12.20
2017-09-15T07:46:32.659Z,12.20
2017-09-15T07:49:00.246Z,12.20
2017-09-15T07:51:28.210Z,12.30
2017-09-15T07:53:55.790Z,12.30
2017-09-15T07:56:24.143Z,12.40
2017-09-15T07:58:51.756Z,12.30
2017-09-15T08:01:19.333Z,12.40
2017-09-15T08:03:46.924Z,12.40
2017-09-15T08:06:14.524Z,12.40
2017-09-15T08:08:42.908Z,12.50
2017-09-15T08:11:11.689Z,12.60
2017-09-15T08:13:41.258Z,12.60
2017-09-15T08:16:08.860Z,12.60
2017-09-15T08:18:36.457Z,12.60
2017-09-15T08:21:04.053Z,12.60
2017-09-15T08:23:31.632Z,12.70
2017-09-15T08:26:00.012Z,12.80
2017-09-15T08:28:27.690Z,12.80
2017-09-15T08:30:55.747Z,12.90
2017-09-15T08:33:23.343Z,12.90
2017-09-15T08:35:50.937Z,13.00
2017-09-15T08:38:18.569Z,13.00
2017-09-15T08:40:46.159Z,13.10
2017-09-15T08:43:13.746Z,13.20
2017-09-15T08:45:42.706Z,13.30
2017-09-15T08:48:10.328Z,13.30
2017-09-15T08:50:37.906Z,13.50
2017-09-15T08:53:05.510Z,13.70
2017-09-15T08:55:33.885Z,13.80
2017-09-15T08:58:01.829Z,13.80
2017-09-15T09:00:29.410Z,13.90
2017-09-15T09:02:57.786Z,14.00
2017-09-15T09:05:26.147Z,14.10
2017-09-15T09:07:53.736Z,14.10
2017-09-15T09:10:21.350Z,14.20
2017-09-15T09:12:48.932Z,14.20
2017-09-15T09:15:16.531Z,14.00
2017-09-15T09:17:44.113Z,13.80
2017-09-15T09:20:12.031Z,13.70
2017-09-15T09:22:40.391Z,13.70
2017-09-15T09:25:07.976Z,13.70
2017-09-15T09:27:35.604Z,13.90
2017-09-15T09:30:03.180Z,14.10
2017-09-15T09:32:31.565Z,14.50
2017-09-15T09:34:59.901Z,14.70
2017-09-15T09:37:27.492Z,14.60
2017-09-15T09:39:55.822Z,14.70
2017-09-15T09:42:23.436Z,14.70
2017-09-15T09:44:51.803Z,14.60
2017-09-15T09:47:20.455Z,14.20
2017-09-15T09:49:48.041Z,14.30
2017-09-15T09:52:15.636Z,14.10
2017-09-15T09:54:43.219Z,14.00
2017-09-15T09:57:10.829Z,13.90
2017-09-15T09:59:39.191Z,14.10
2017-09-15T10:02:06.787Z,14.10
2017-09-15T10:04:34.395Z,14.30
2017-09-15T10:07:01.990Z,14.30
2017-09-15T10:09:30.627Z,14.30
2017-09-15T10:11:58.199Z,14.30
2017-09-15T10:14:25.779Z,14.20
2017-09-15T10:16:53.369Z,14.10
2017-09-15T10:19:20.981Z,14.10
2017-09-15T10:21:48.574Z,14.00
2017-09-15T10:24:16.931Z,14.30
2017-09-15T10:26:44.532Z,14.30
2017-09-15T10:29:12.124Z,14.50
2017-09-15T10:31:39.762Z,14.60
2017-09-15T10:34:07.363Z,14.70
2017-09-15T10:36:34.954Z,14.90
2017-09-15T10:39:02.540Z,15.10
2017-09-15T10:41:30.137Z,15.30
2017-09-15T10:43:57.726Z,15.30
2017-09-15T10:46:26.078Z,15.40
2017-09-15T10:48:53.665Z,15.40
2017-09-15T10:51:22.023Z,15.50
2017-09-15T10:53:49.620Z,15.40
2017-09-15T10:56:17.193Z,15.30
2017-09-15T11:01:47.992Z,15.40
2017-09-15T11:04:15.954Z,15.40
2017-09-15T11:06:43.527Z,15.40
2017-09-15T11:09:11.122Z,15.30
2017-09-15T11:11:38.701Z,15.30
2017-09-15T11:14:06.268Z,15.30
2017-09-15T11:16:33.851Z,15.10
2017-09-15T11:19:01.439Z,15.10
2017-09-15T11:21:29.806Z,15.30
2017-09-15T11:23:57.373Z,15.20
2017-09-15T11:26:25.994Z,15.50
2017-09-15T11:28:53.551Z,15.50
2017-09-15T11:31:21.117Z,15.40
2017-09-15T11:33:48.726Z,15.30
2017-09-15T11:36:17.124Z,15.40
2017-09-15T11:38:45.435Z,15.40
2017-09-15T11:41:13.013Z,15.50
2017-09-15T11:43:40.899Z,15.70
2017-09-15T11:46:08.474Z,15.70
2017-09-15T11:48:36.834Z,16.00
2017-09-15T11:51:04.413Z,16.00
2017-09-15T11:53:32.774Z,16.50
2017-09-15T11:56:01.160Z,17.00
2017-09-15T11:58:28.846Z,16.90
2017-09-15T12:00:56.782Z,17.30
2017-09-15T12:03:24.391Z,17.60
2017-09-15T12:05:51.964Z,17.90
2017-09-15T12:08:19.547Z,18.20
2017-09-15T12:10:47.116Z,18.50
2017-09-15T12:13:14.727Z,18.60
2017-09-15T12:15:42.303Z,18.70
2017-09-15T12:18:10.187Z,18.50
2017-09-15T12:20:37.769Z,18.60
2017-09-15T12:23:06.116Z,18.80
2017-09-15T12:25:33.722Z,18.80
2017-09-15T12:28:02.077Z,18.30
2017-09-15T12:30:30.409Z,17.80
2017-09-15T12:32:57.984Z,17.80
2017-09-15T12:35:25.959Z,17.60
2017-09-15T12:37:53.530Z,17.40
2017-09-15T12:40:21.145Z,17.20
2017-09-15T12:42:48.764Z,17.10
2017-09-15T12:45:16.365Z,17.30
2017-09-15T12:47:43.970Z,17.50
2017-09-15T12:50:11.546Z,17.60
2017-09-15T12:52:40.237Z,17.70
2017-09-15T12:55:08.589Z,17.50
2017-09-15T12:57:36.167Z,17.50
2017-09-15T13:00:04.530Z,17.70
2017-09-15T13:02:32.111Z,17.70
2017-09-15T13:05:00.467Z,17.80
2017-09-15T13:07:28.037Z,17.80
2017-09-15T13:09:56.421Z,16.90
2017-09-15T13:12:23.988Z,16.80
2017-09-15T13:14:52.578Z,16.60
2017-09-15T13:17:20.928Z,16.70
2017-09-15T13:19:48.532Z,16.70
2017-09-15T13:22:16.116Z,16.90
2017-09-15T13:24:43.713Z,17.00
2017-09-15T13:27:12.075Z,16.90
2017-09-15T13:29:39.659Z,16.80
2017-09-15T13:32:07.249Z,17.10
2017-09-15T13:34:34.827Z,17.20
2017-09-15T13:37:02.661Z,17.20
2017-09-15T13:39:30.224Z,17.10
2017-09-15T13:41:57.813Z,16.90
2017-09-15T13:44:25.421Z,16.70
2017-09-15T13:46:53.774Z,16.90
2017-09-15T13:49:21.371Z,16.90
2017-09-15T13:51:48.972Z,17.10
2017-09-15T13:54:16.581Z,17.10
2017-09-15T13:56:44.928Z,16.90
2017-09-15T13:59:12.803Z,16.90
2017-09-15T14:01:40.440Z,16.70
2017-09-15T14:04:08.013Z,16.80
2017-09-15T14:06:35.595Z,16.90
2017-09-15T14:09:03.187Z,16.90
2017-09-15T14:11:30.759Z,17.00
2017-09-15T14:13:58.342Z,17.10
2017-09-15T14:16:25.965Z,17.00
2017-09-15T14:18:53.553Z,17.00
2017-09-15T14:21:21.410Z,17.00
2017-09-15T14:23:48.972Z,17.00
2017-09-15T14:26:16.579Z,17.00
2017-09-15T14:28:44.944Z,16.80
2017-09-15T14:31:12.532Z,16.80
2017-09-15T14:33:40.126Z,16.70
2017-09-15T14:36:07.713Z,16.70
2017-09-15T14:38:35.329Z,16.60
2017-09-15T14:41:02.983Z,16.50
2017-09-15T14:43:30.618Z,16.30
2017-09-15T14:45:58.227Z,16.20
2017-09-15T14:48:25.819Z,16.10
2017-09-15T14:50:53.421Z,16.10
2017-09-15T14:53:21.349Z,16.00
2017-09-15T14:55:50.012Z,16.20
2017-09-15T14:58:17.606Z,16.10
2017-09-15T15:00:45.988Z,16.20
2017-09-15T15:03:14.319Z,16.30
2017-09-15T15:05:41.929Z,16.20
2017-09-15T15:08:10.373Z,16.30
2017-09-15T15:10:37.986Z,16.30
2017-09-15T15:13:05.577Z,16.40
2017-09-15T15:15:33.480Z,16.30
2017-09-15T15:18:01.049Z,16.30
2017-09-15T15:20:28.684Z,16.20
2017-09-15T15:22:56.285Z,16.20
2017-09-15T15:25:23.875Z,16.10
2017-09-15T15:27:52.245Z,15.90
2017-09-15T15:30:19.811Z,15.90
2017-09-15T15:32:47.412Z,15.90
2017-09-15T15:35:14.984Z,15.80
2017-09-15T15:37:42.866Z,15.80
2017-09-15T15:40:10.454Z,15.80
2017-09-15T15:42:38.031Z,15.80
2017-09-15T15:45:05.629Z,15.80
2017-09-15T15:47:33.243Z,15.80
2017-09-15T15:50:00.822Z,15.80
2017-09-15T15:52:28.466Z,15.80
2017-09-15T15:54:56.067Z,15.90
2017-09-15T15:57:24.405Z,15.90
2017-09-15T15:59:52.501Z,15.90
2017-09-15T16:02:20.061Z,15.90
2017-09-15T16:04:48.412Z,15.80
2017-09-15T16:07:16.004Z,15.80
2017-09-15T16:09:44.365Z,15.80
2017-09-15T16:12:11.942Z,15.80
2017-09-15T16:14:40.296Z,15.60
2017-09-15T16:17:07.882Z,15.60
2017-09-15T16:19:36.258Z,15.60
2017-09-15T16:22:04.947Z,15.50
2017-09-15T16:24:33.311Z,15.50
2017-09-15T16:27:01.684Z,15.50
2017-09-15T16:29:30.064Z,15.40
2017-09-15T16:31:58.436Z,15.40
2017-09-15T16:34:26.818Z,15.30
2017-09-15T16:36:55.168Z,15.20
2017-09-15T16:39:28.296Z,15.20
2017-09-15T16:42:02.228Z,15.10
2017-09-15T16:44:35.608Z,15.10
2017-09-15T16:47:08.740Z,15.10
2017-09-15T16:49:35.868Z,15.00
2017-09-15T16:52:03.440Z,14.90
2017-09-15T16:54:31.328Z,14.90
2017-09-15T16:56:59.679Z,14.80
2017-09-15T16:59:27.293Z,14.80
2017-09-15T17:01:54.895Z,14.80
2017-09-15T17:04:22.520Z,14.70
2017-09-15T17:06:52.142Z,14.50
2017-09-15T17:09:19.708Z,14.50
2017-09-15T17:11:47.274Z,14.50
2017-09-15T17:14:14.908Z,14.40
2017-09-15T17:16:42.548Z,14.30
2017-09-15T17:19:10.337Z,14.20
2017-09-15T17:21:38.672Z,14.10
2017-09-15T17:24:06.279Z,14.10
2017-09-15T17:26:33.878Z,14.00
2017-09-15T17:29:01.804Z,14.00
2017-09-15T17:31:29.389Z,13.90
2017-09-15T17:33:57.001Z,13.80
2017-09-15T17:36:25.387Z,13.70
2017-09-15T17:38:53.735Z,13.60
2017-09-15T17:41:21.311Z,13.60
2017-09-15T17:43:48.899Z,13.60
2017-09-15T17:46:16.847Z,13.50
2017-09-15T17:48:45.225Z,13.40
2017-09-15T17:51:13.563Z,13.40
2017-09-15T17:53:41.142Z,13.40
2017-09-15T17:56:08.733Z,13.30
2017-09-15T17:58:36.367Z,13.30
2017-09-15T18:01:03.966Z,13.20
2017-09-15T18:03:31.721Z,13.20
2017-09-15T18:05:59.322Z,13.10
2017-09-15T18:08:27.213Z,13.10
2017-09-15T18:10:54.787Z,13.10
2017-09-15T18:13:23.134Z,13.00
2017-09-15T18:15:50.765Z,13.00
2017-09-15T18:18:18.347Z,13.00
2017-09-15T18:20:45.942Z,13.00
2017-09-15T18:23:14.340Z,12.90
2017-09-15T18:25:42.279Z,12.90
2017-09-15T18:28:09.881Z,12.90
2017-09-15T18:30:37.450Z,12.90
2017-09-15T18:33:05.027Z,12.80
2017-09-15T18:35:32.612Z,12.80
2017-09-15T18:38:00.209Z,12.80
2017-09-15T18:40:27.806Z,12.80
2017-09-15T18:42:55.695Z,12.70
2017-09-15T18:45:23.288Z,12.70
2017-09-15T18:47:50.882Z,12.70
2017-09-15T18:50:18.475Z,12.70
2017-09-15T18:52:46.034Z,12.70
2017-09-15T18:55:13.650Z,12.60
2017-09-15T18:57:41.251Z,12.60
2017-09-15T19:00:09.113Z,12.60
2017-09-15T19:02:36.734Z,12.50
2017-09-15T19:05:04.351Z,12.50
2017-09-15T19:07:32.728Z,12.50
2017-09-15T19:10:01.098Z,12.40
2017-09-15T19:12:28.743Z,12.40
2017-09-15T19:14:56.369Z,12.40
2017-09-15T19:17:23.993Z,12.40
2017-09-15T19:19:52.460Z,12.40
2017-09-15T19:22:20.328Z,12.30
2017-09-15T19:24:48.779Z,12.40
2017-09-15T19:27:16.460Z,12.30
2017-09-15T19:29:44.071Z,12.30
2017-09-15T19:32:11.834Z,12.30
2017-09-15T19:34:39.485Z,12.30
2017-09-15T19:37:07.078Z,12.30
2017-09-15T19:39:34.966Z,12.30
2017-09-15T19:42:02.565Z,12.30
2017-09-15T19:44:30.169Z,12.30
2017-09-15T19:46:57.782Z,12.30
2017-09-15T19:49:25.351Z,12.30
2017-09-15T19:51:53.206Z,12.30
2017-09-15T19:54:21.569Z,12.30
2017-09-15T19:56:49.935Z,12.30
2017-09-15T19:59:17.512Z,12.20
2017-09-15T20:01:45.077Z,12.30
2017-09-15T20:04:12.696Z,12.20
2017-09-15T20:06:41.327Z,12.20
2017-09-15T20:09:09.036Z,12.20
2017-09-15T20:11:36.730Z,12.20
2017-09-15T20:14:05.235Z,12.20
2017-09-15T20:16:32.837Z,12.20
2017-09-15T20:19:00.709Z,12.20
2017-09-15T20:21:28.319Z,12.20
2017-09-15T20:23:55.886Z,12.20
2017-09-15T20:26:23.594Z,12.20
2017-09-15T20:28:51.184Z,12.20
2017-09-15T20:31:19.533Z,12.20
2017-09-15T20:33:47.121Z,12.20
2017-09-15T20:36:15.498Z,12.10
2017-09-15T20:38:43.183Z,12.20
2017-09-15T20:41:11.176Z,12.10
2017-09-15T20:43:38.780Z,12.00
2017-09-15T20:46:07.140Z,12.00
2017-09-15T20:48:34.749Z,12.00
2017-09-15T20:51:03.629Z,12.00
2017-09-15T20:53:31.966Z,12.10
2017-09-15T20:55:59.551Z,12.00
2017-09-15T20:58:27.893Z,12.00
2017-09-15T21:00:56.405Z,12.00
2017-09-15T21:03:25.035Z,12.00
2017-09-15T21:05:52.771Z,12.00
2017-09-15T21:08:20.403Z,12.00
2017-09-15T21:10:47.996Z,12.00
2017-09-15T21:13:15.569Z,12.00
2017-09-15T21:15:43.140Z,12.00
2017-09-15T21:18:10.778Z,11.90
2017-09-15T21:20:38.387Z,11.90
2017-09-15T21:23:05.984Z,11.90
2017-09-15T21:25:34.178Z,11.90
2017-09-15T21:28:01.737Z,11.90
2017-09-15T21:30:29.530Z,11.80
2017-09-15T21:32:57.126Z,11.80
2017-09-15T21:35:25.465Z,11.80
2017-09-15T21:37:53.305Z,11.80
2017-09-15T21:40:20.931Z,11.80
2017-09-15T21:42:48.854Z,11.80
2017-09-15T21:45:17.178Z,11.80
2017-09-15T21:47:45.527Z,11.80
2017-09-15T21:50:13.160Z,11.80
2017-09-15T21:52:40.775Z,11.80
2017-09-15T21:55:09.438Z,11.80
2017-09-15T21:57:37.032Z,11.80
2017-09-15T22:00:04.603Z,11.80
2017-09-15T22:02:32.360Z,11.70
2017-09-15T22:04:59.950Z,11.60
2017-09-15T22:07:27.557Z,11.60
2017-09-15T22:09:56.824Z,11.60
2017-09-15T22:12:24.393Z,11.70
2017-09-15T22:14:51.948Z,11.60
2017-09-15T22:17:19.903Z,11.70
2017-09-15T22:19:47.485Z,11.70
2017-09-15T22:22:15.039Z,11.60
2017-09-15T22:24:42.649Z,11.60
2017-09-15T22:27:10.210Z,11.70
2017-09-15T22:29:37.785Z,11.70
2017-09-15T22:32:05.367Z,11.70
2017-09-15T22:34:34.026Z,11.70
2017-09-15T22:37:01.597Z,11.70
2017-09-15T22:39:29.210Z,11.70
2017-09-15T22:41:57.748Z,11.70
2017-09-15T22:44:25.364Z,11.70
2017-09-15T22:46:52.953Z,11.70
2017-09-15T22:49:20.539Z,11.70
2017-09-15T22:51:48.480Z,11.70
2017-09-15T22:54:28.000Z,11.70
2017-09-15T22:56:55.881Z,11.70
2017-09-15T22:59:23.546Z,11.70
2017-09-15T23:01:51.103Z,11.70
2017-09-15T23:04:19.452Z,11.70
2017-09-15T23:06:47.026Z,11.70
2017-09-15T23:09:14.609Z,11.70
2017-09-15T23:11:42.198Z,11.70
2017-09-15T23:14:10.865Z,11.70
2017-09-15T23:16:38.419Z,11.60
2017-09-15T23:19:05.979Z,11.60
2017-09-15T23:21:33.867Z,11.60
2017-09-15T23:24:02.290Z,11.60
2017-09-15T23:26:29.897Z,11.60
2017-09-15T23:28:57.474Z,11.60
2017-09-15T23:31:26.131Z,11.60
2017-09-15T23:33:53.718Z,11.60
2017-09-15T23:36:22.158Z,11.60
2017-09-15T23:38:49.740Z,11.60
2017-09-15T23:41:17.300Z,11.60
2017-09-15T23:43:44.873Z,11.60
2017-09-15T23:46:12.426Z,11.60
2017-09-15T23:48:40.781Z,11.60
2017-09-15T23:51:08.347Z,11.60
2017-09-15T23:53:36.397Z,11.60
2017-09-15T23:56:03.967Z,11.60
2017-09-15T23:58:31.530Z,11.50
